Time;durP1;ratioP1;P1;durP2;ratioP2;P2;SDS_P1;SDS_P2;PMS_P1;PMS_P2;Temp;Humidity;BMP_temperature;BMP_pressure;BME280_temperature;BME280_humidity;BME280_pressure;Samples;Min_cycle;Max_cycle;Signal;HPM_P1;HPM_P2
2021/03/14 00:01:20;;;;;;;55.52;29.50;;;;;;;4.14;75.97;100683.81;1673355;86;21221;-55
2021/03/14 00:04:28;;;;;;;51.30;28.07;;;;;;;4.08;76.13;100684.81;1673079;86;21710;-56
2021/03/14 00:07:34;;;;;;;51.18;29.45;;;;;;;4.06;76.31;100678.17;1672791;86;21324;-55
2021/03/14 00:10:38;;;;;;;50.78;27.70;;;;;;;4.04;76.38;100678.78;1672566;86;21582;-56
2021/03/14 00:13:44;;;;;;;49.13;26.20;;;;;;;4.04;76.50;100676.59;1672442;86;21563;-58
2021/03/14 00:16:49;;;;;;;43.05;25.95;;;;;;;4.07;76.55;100683.11;1672385;86;21244;-56
2021/03/14 00:19:54;;;;;;;44.73;25.97;;;;;;;4.09;76.61;100683.85;1672551;86;21201;-55
2021/03/14 00:22:59;;;;;;;44.93;27.20;;;;;;;4.12;76.65;100679.02;1672839;86;21307;-55
2021/03/14 00:26:06;;;;;;;46.80;28.38;;;;;;;4.13;76.76;100688.02;1673279;86;21297;-55
2021/03/14 00:29:14;;;;;;;48.05;27.35;;;;;;;4.16;76.87;100680.50;1673421;86;21241;-54
2021/03/14 00:32:18;;;;;;;50.85;28.67;;;;;;;4.20;76.90;100689.23;1673376;86;21277;-54
2021/03/14 00:35:25;;;;;;;48.42;28.40;;;;;;;4.25;76.85;100690.55;1673290;86;21755;-54
2021/03/14 00:38:30;;;;;;;45.43;27.35;;;;;;;4.27;76.84;100684.52;1673213;86;21217;-54
2021/03/14 00:41:35;;;;;;;49.03;28.15;;;;;;;4.30;76.81;100688.33;1673232;86;21224;-54
2021/03/14 00:44:40;;;;;;;43.00;26.02;;;;;;;4.32;76.82;100689.55;1673296;86;21233;-53
2021/03/14 00:47:48;;;;;;;46.42;26.90;;;;;;;4.34;76.76;100691.13;1673364;86;21260;-54
2021/03/14 00:50:56;;;;;;;43.23;26.20;;;;;;;4.34;76.73;100695.19;1673302;86;21232;-54
2021/03/14 00:54:04;;;;;;;48.90;26.65;;;;;;;4.35;76.80;100697.42;1673174;86;21257;-54
2021/03/14 00:57:09;;;;;;;46.80;27.52;;;;;;;4.36;76.72;100698.64;1673238;86;21236;-54
2021/03/14 01:00:16;;;;;;;45.20;26.33;;;;;;;4.35;76.78;100702.84;1680586;83;21296;-54
2021/03/14 01:03:21;;;;;;;46.25;27.15;;;;;;;4.39;76.83;100701.09;1703253;84;21276;-54
2021/03/14 01:06:27;;;;;;;43.00;27.02;;;;;;;4.40;76.75;100697.41;1703426;84;21272;-55
2021/03/14 01:09:34;;;;;;;42.15;27.05;;;;;;;4.43;76.71;100704.41;1703131;84;21273;-54
2021/03/14 01:12:41;;;;;;;47.70;28.40;;;;;;;4.41;76.62;100695.06;1702929;84;21300;-54
2021/03/14 01:15:49;;;;;;;48.83;29.77;;;;;;;4.36;76.67;100695.09;1703832;83;21774;-54
2021/03/14 01:18:56;;;;;;;48.90;30.27;;;;;;;4.33;76.79;100695.33;1703728;84;21268;-55
2021/03/14 01:22:02;;;;;;;54.73;27.45;;;;;;;4.33;76.92;100692.61;1703731;84;21262;-54
2021/03/14 01:25:08;;;;;;;48.95;28.87;;;;;;;4.35;77.00;100691.52;1703846;84;21197;-54
2021/03/14 01:28:14;;;;;;;51.08;27.35;;;;;;;4.34;77.00;100691.64;1703482;84;21248;-54
2021/03/14 01:31:21;;;;;;;49.50;28.35;;;;;;;4.33;77.10;100688.55;1703533;84;21257;-54
2021/03/14 01:34:28;;;;;;;46.08;27.48;;;;;;;4.35;77.26;100684.74;1703202;84;21754;-54
2021/03/14 01:37:34;;;;;;;40.83;26.23;;;;;;;4.41;77.32;100691.47;1703691;84;21297;-56
2021/03/14 01:40:44;;;;;;;42.58;26.12;;;;;;;4.45;77.29;100689.77;1703770;84;21237;-54
2021/03/14 01:43:51;;;;;;;43.08;26.00;;;;;;;4.49;77.31;100691.69;1703642;84;21872;-54
2021/03/14 01:46:58;;;;;;;37.70;23.95;;;;;;;4.56;77.32;100689.71;1703653;84;21812;-54
2021/03/14 01:50:06;;;;;;;44.48;26.70;;;;;;;4.63;77.19;100698.67;1703316;84;21233;-54
2021/03/14 01:53:12;;;;;;;41.18;25.85;;;;;;;4.64;77.00;100702.61;1703672;84;21357;-55
2021/03/14 01:56:21;;;;;;;42.08;25.97;;;;;;;4.63;76.91;100701.38;1703707;84;21853;-54
2021/03/14 01:59:26;;;;;;;40.60;24.77;;;;;;;4.61;76.83;100695.58;1703567;84;21358;-55
2021/03/14 02:02:32;;;;;;;37.35;24.10;;;;;;;4.58;76.74;100695.84;1703530;83;21248;-56
2021/03/14 02:05:38;;;;;;;36.98;23.10;;;;;;;4.59;76.74;100697.58;1705260;84;21356;-56
2021/03/14 02:08:43;;;;;;;40.98;25.00;;;;;;;4.59;76.71;100698.94;1705510;84;21379;-56
2021/03/14 02:11:49;;;;;;;35.15;22.25;;;;;;;4.63;76.75;100696.31;1705969;84;21359;-54
2021/03/14 02:14:57;;;;;;;35.30;19.67;;;;;;;4.68;76.70;100699.14;1705818;84;21399;-56
2021/03/14 02:18:04;;;;;;;34.53;21.75;;;;;;;4.69;76.51;100698.14;1706056;84;21293;-55
2021/03/14 02:21:12;;;;;;;33.78;21.30;;;;;;;4.69;76.58;100704.92;1705928;84;21227;-54
2021/03/14 02:24:25;;;;;;;36.98;22.85;;;;;;;4.72;76.63;100699.23;1705924;84;21654;-55
2021/03/14 02:27:30;;;;;;;33.55;20.90;;;;;;;4.76;76.61;100696.64;1706001;84;21392;-55
2021/03/14 02:30:35;;;;;;;36.77;21.12;;;;;;;4.79;76.55;100697.73;1706094;84;21202;-55
2021/03/14 02:33:44;;;;;;;34.80;21.62;;;;;;;4.81;76.40;100707.44;1705795;84;21419;-56
2021/03/14 02:36:51;;;;;;;37.10;21.00;;;;;;;4.82;76.36;100707.80;1705991;84;21273;-54
2021/03/14 02:39:58;;;;;;;32.98;21.12;;;;;;;4.83;76.28;100719.52;1705956;84;21276;-55
2021/03/14 02:43:05;;;;;;;36.13;21.97;;;;;;;4.83;76.27;100721.73;1703068;83;21253;-55
2021/03/14 02:46:11;;;;;;;34.70;20.68;;;;;;;4.84;76.27;100723.45;1702862;84;21214;-56
2021/03/14 02:49:17;;;;;;;39.08;22.07;;;;;;;4.86;76.29;100729.61;1705735;84;21237;-56
2021/03/14 02:52:23;;;;;;;38.08;21.33;;;;;;;4.89;76.20;100730.70;1705821;84;21809;-55
2021/03/14 02:55:30;;;;;;;38.13;21.20;;;;;;;4.91;76.13;100718.36;1706022;84;21343;-56
2021/03/14 02:58:36;;;;;;;38.53;22.13;;;;;;;4.94;76.05;100710.83;1706010;84;21427;-55
2021/03/14 03:01:40;;;;;;;37.93;22.35;;;;;;;4.97;75.93;100710.56;1705957;84;21328;-55
2021/03/14 03:04:47;;;;;;;38.25;23.02;;;;;;;4.97;75.81;100705.63;1673320;86;21205;-56
2021/03/14 03:07:56;;;;;;;37.23;20.92;;;;;;;4.97;75.74;100691.57;1673303;86;21252;-55
2021/03/14 03:11:02;;;;;;;38.33;22.07;;;;;;;4.92;75.53;100691.10;1673353;86;21741;-56
2021/03/14 03:14:10;;;;;;;40.25;22.10;;;;;;;4.88;75.68;100680.66;1673387;86;21287;-55
2021/03/14 03:17:16;;;;;;;35.50;20.62;;;;;;;4.86;75.72;100677.20;1673295;86;21229;-56
2021/03/14 03:20:23;;;;;;;37.60;20.92;;;;;;;4.85;75.81;100683.64;1638010;87;21285;-56
2021/03/14 03:23:29;;;;;;;37.78;20.65;;;;;;;4.88;75.92;100679.30;1626791;88;21348;-55
2021/03/14 03:26:36;;;;;;;35.05;20.55;;;;;;;4.87;75.75;100683.86;1626761;88;22059;-56
2021/03/14 03:29:41;;;;;;;36.15;19.98;;;;;;;4.85;75.87;100670.08;1626802;87;21250;-57
2021/03/14 03:32:47;;;;;;;36.63;21.93;;;;;;;4.83;75.81;100669.34;1627152;87;21312;-55
2021/03/14 03:35:53;;;;;;;34.45;20.82;;;;;;;4.78;75.91;100662.97;1626652;88;21249;-55
2021/03/14 03:38:59;;;;;;;32.50;19.15;;;;;;;4.76;75.89;100668.17;1626833;87;21252;-54
2021/03/14 03:42:13;;;;;;;35.17;19.10;;;;;;;4.66;75.90;100654.55;1626816;87;21309;-55
2021/03/14 03:45:20;;;;;;;32.15;18.10;;;;;;;4.46;76.05;100665.72;1626835;88;21825;-55
2021/03/14 03:48:31;;;;;;;31.25;16.93;;;;;;;4.29;76.53;100664.06;1611268;88;21278;-55
2021/03/14 03:51:38;;;;;;;27.45;15.43;;;;;;;4.26;76.99;100671.97;1627080;87;21280;-54
2021/03/14 03:54:46;;;;;;;26.80;15.65;;;;;;;4.24;77.36;100669.88;1627094;87;21228;-55
2021/03/14 03:57:51;;;;;;;28.70;15.25;;;;;;;4.23;77.56;100675.43;1627148;87;21244;-54
2021/03/14 04:00:56;;;;;;;24.20;14.18;;;;;;;4.20;77.80;100677.87;1626979;87;21265;-56
2021/03/14 04:04:02;;;;;;;29.23;15.25;;;;;;;4.18;78.00;100678.53;1627934;86;21267;-54
2021/03/14 04:07:11;;;;;;;32.42;17.05;;;;;;;4.18;78.12;100687.14;1625361;88;21304;-54
2021/03/14 04:10:19;;;;;;;35.92;18.52;;;;;;;4.16;78.12;100685.91;1625308;88;21232;-55
2021/03/14 04:13:24;;;;;;;45.58;19.42;;;;;;;4.16;78.16;100685.05;1625542;88;21240;-55
2021/03/14 04:16:29;;;;;;;39.23;20.02;;;;;;;4.22;78.20;100684.04;1625192;87;21227;-55
2021/03/14 04:19:35;;;;;;;52.27;21.30;;;;;;;4.30;78.22;100682.91;1625404;88;21308;-55
2021/03/14 04:22:40;;;;;;;48.20;24.70;;;;;;;4.32;77.91;100680.06;1625388;88;21729;-55
2021/03/14 04:25:45;;;;;;;50.75;25.45;;;;;;;4.30;77.85;100682.91;1625333;88;21755;-55
2021/03/14 04:28:51;;;;;;;57.50;26.62;;;;;;;4.32;77.93;100671.45;1625121;88;21232;-56
2021/03/14 04:31:56;;;;;;;55.35;27.55;;;;;;;4.40;77.92;100675.73;1625257;88;21758;-55
2021/03/14 04:35:03;;;;;;;54.65;28.32;;;;;;;4.48;77.84;100675.08;1625219;88;21816;-54
2021/03/14 04:38:08;;;;;;;63.25;30.88;;;;;;;4.54;77.61;100676.77;1625249;88;21288;-55
2021/03/14 04:41:14;;;;;;;53.58;28.50;;;;;;;4.61;77.54;100681.18;1625320;88;21785;-55
2021/03/14 04:44:18;;;;;;;63.95;31.85;;;;;;;4.68;77.35;100684.23;1625517;88;21283;-55
2021/03/14 04:47:23;;;;;;;54.30;30.55;;;;;;;4.74;77.28;100675.56;1625255;88;21267;-55
2021/03/14 04:50:34;;;;;;;59.48;30.27;;;;;;;4.76;77.00;100672.23;1625356;88;21230;-55
2021/03/14 04:53:39;;;;;;;62.03;30.27;;;;;;;4.79;76.95;100670.09;1625317;88;21765;-56
2021/03/14 04:56:47;;;;;;;60.95;30.12;;;;;;;4.81;76.76;100672.67;1593489;88;21232;-56
2021/03/14 04:59:52;;;;;;;56.98;28.32;;;;;;;4.81;76.66;100669.95;1625334;88;21300;-55
2021/03/14 05:03:02;;;;;;;56.40;29.27;;;;;;;4.80;76.60;100669.61;1625520;88;21300;-55
2021/03/14 05:06:09;;;;;;;72.72;31.17;;;;;;;4.76;76.64;100676.30;1668367;83;21394;-55
2021/03/14 05:09:16;;;;;;;71.80;29.55;;;;;;;4.74;76.75;100686.41;1689744;85;21892;-56
2021/03/14 05:12:22;;;;;;;60.65;28.65;;;;;;;4.70;76.75;100683.09;1689769;85;21395;-56
2021/03/14 05:15:28;;;;;;;71.07;32.42;;;;;;;4.63;76.88;100686.47;1689753;85;21379;-56
2021/03/14 05:18:34;;;;;;;59.85;29.12;;;;;;;4.53;76.92;100684.52;1689778;85;21383;-55
2021/03/14 05:21:40;;;;;;;62.50;31.05;;;;;;;4.53;77.34;100691.30;1689693;85;21406;-55
2021/03/14 05:24:45;;;;;;;57.05;29.67;;;;;;;4.58;77.47;100691.77;1689838;85;21371;-55
2021/03/14 05:27:55;;;;;;;65.32;30.20;;;;;;;4.59;77.52;100694.87;1689718;83;21421;-57
2021/03/14 05:31:01;;;;;;;61.15;30.97;;;;;;;4.60;77.53;100691.64;1668911;85;21375;-56
2021/03/14 05:34:07;;;;;;;58.48;29.10;;;;;;;4.65;77.71;100696.70;1637116;86;21410;-55
2021/03/14 05:37:14;;;;;;;68.35;31.95;;;;;;;4.72;77.74;100693.81;1627553;87;21411;-55
2021/03/14 05:40:22;;;;;;;64.53;30.30;;;;;;;4.76;77.59;100687.15;1678794;85;21197;-56
2021/03/14 05:43:28;;;;;;;61.70;31.20;;;;;;;4.83;77.58;100685.61;1641562;86;21314;-56
2021/03/14 05:46:34;;;;;;;52.90;29.23;;;;;;;4.89;77.46;100686.43;1671694;85;21738;-56
2021/03/14 05:49:39;;;;;;;66.45;30.30;;;;;;;4.91;77.36;100686.69;1641236;87;21226;-56
2021/03/14 05:52:49;;;;;;;63.40;30.32;;;;;;;4.90;77.19;100683.59;1671380;84;21244;-56
2021/03/14 05:55:56;;;;;;;59.58;30.55;;;;;;;4.98;77.29;100692.44;1641613;87;21844;-55
2021/03/14 05:59:02;;;;;;;60.75;32.13;;;;;;;5.05;77.04;100693.61;1656613;85;21283;-55
2021/03/14 06:02:10;;;;;;;56.30;28.92;;;;;;;5.03;76.90;100688.31;1641040;86;21318;-55
2021/03/14 06:05:16;;;;;;;55.90;29.00;;;;;;;5.05;76.97;100686.34;1671923;85;21317;-57
2021/03/14 06:08:20;;;;;;;54.77;29.42;;;;;;;5.07;76.85;100694.34;1613528;87;21410;-56
2021/03/14 06:11:25;;;;;;;57.58;29.87;;;;;;;5.14;76.86;100707.76;1602465;88;21234;-56
2021/03/14 06:14:30;;;;;;;52.73;29.15;;;;;;;5.18;76.83;100714.13;1602148;89;21246;-56
2021/03/14 06:17:37;;;;;;;52.55;29.60;;;;;;;5.21;76.69;100712.50;1602117;88;21321;-57
2021/03/14 06:20:45;;;;;;;48.65;25.43;;;;;;;5.24;76.71;100716.31;1602106;89;21772;-56
2021/03/14 06:24:12;;;;;;;47.00;25.12;;;;;;;5.26;76.52;100722.95;1601981;88;21333;-56
2021/03/14 06:27:19;;;;;;;48.50;26.93;;;;;;;5.23;76.46;100716.44;1589817;88;21783;-55
2021/03/14 06:30:28;;;;;;;51.33;27.73;;;;;;;5.25;76.43;100722.61;1602357;89;21244;-57
2021/03/14 06:33:35;;;;;;;46.80;24.98;;;;;;;5.22;76.30;100722.84;1602294;88;21284;-57
2021/03/14 06:36:43;;;;;;;45.98;25.00;;;;;;;5.27;76.40;100730.09;1602361;89;21660;-56
2021/03/14 06:39:55;;;;;;;48.10;25.25;;;;;;;5.27;76.24;100729.61;1602378;89;21289;-57
2021/03/14 06:43:01;;;;;;;49.42;26.90;;;;;;;5.28;76.43;100733.19;1619659;86;21256;-57
2021/03/14 06:46:07;;;;;;;49.30;27.02;;;;;;;5.31;76.36;100726.13;1654872;86;21243;-56
2021/03/14 06:49:20;;;;;;;40.63;22.85;;;;;;;5.34;76.27;100728.09;1654824;85;21264;-57
2021/03/14 06:52:25;;;;;;;49.10;24.67;;;;;;;5.36;76.35;100731.51;1654855;85;21737;-58
2021/03/14 06:55:33;;;;;;;46.88;25.00;;;;;;;5.36;76.30;100734.73;1605089;88;21274;-58
2021/03/14 06:58:40;;;;;;;43.25;22.62;;;;;;;5.33;76.38;100734.98;1602019;88;21262;-58
2021/03/14 07:01:47;;;;;;;43.90;23.12;;;;;;;5.30;76.40;100734.77;1602171;89;21589;-57
2021/03/14 07:04:58;;;;;;;37.58;21.37;;;;;;;5.24;76.58;100742.58;1601581;89;21251;-57
2021/03/14 07:08:04;;;;;;;47.62;20.57;;;;;;;5.27;76.75;100732.32;1613603;83;21426;-58
2021/03/14 07:11:09;;;;;;;36.30;20.68;;;;;;;5.29;76.78;100737.61;1658988;86;21206;-58
2021/03/14 07:14:19;;;;;;;35.70;19.07;;;;;;;5.33;76.79;100729.55;1663496;85;21266;-58
2021/03/14 07:17:42;;;;;;;33.63;17.10;;;;;;;5.36;76.76;100732.03;1657796;85;21281;-58
2021/03/14 07:20:48;;;;;;;35.78;18.77;;;;;;;5.36;76.80;100727.44;1658827;86;21210;-58
2021/03/14 07:23:56;;;;;;;32.10;17.27;;;;;;;5.39;76.84;100729.88;1662897;85;21277;-56
2021/03/14 07:27:06;;;;;;;30.68;17.55;;;;;;;5.48;77.06;100729.58;1657795;85;21238;-58
2021/03/14 07:30:13;;;;;;;30.95;17.02;;;;;;;5.54;76.73;100716.81;1663461;86;21881;-59
2021/03/14 07:33:19;;;;;;;34.27;18.73;;;;;;;5.47;76.64;100718.37;1658329;85;21260;-57
2021/03/14 07:36:27;;;;;;;31.80;16.90;;;;;;;5.48;76.88;100718.72;1663248;86;21214;-57
2021/03/14 07:39:34;;;;;;;28.15;16.23;;;;;;;5.45;76.86;100715.80;1658481;86;21245;-57
2021/03/14 07:42:40;;;;;;;29.32;16.12;;;;;;;5.40;77.04;100718.53;1658910;85;21322;-58
2021/03/14 07:45:47;;;;;;;30.57;15.48;;;;;;;5.45;77.24;100714.44;1663437;86;22007;-58
2021/03/14 07:48:56;;;;;;;28.83;15.30;;;;;;;5.50;77.18;100708.07;1657918;85;21281;-58
2021/03/14 07:52:11;;;;;;;27.10;15.18;;;;;;;5.50;77.17;100699.09;1664425;86;21368;-58
2021/03/14 07:55:26;;;;;;;21.30;13.15;;;;;;;5.62;77.51;100693.42;1658656;86;21321;-56
2021/03/14 07:58:35;;;;;;;25.97;14.90;;;;;;;5.81;77.46;100685.34;1658590;85;21782;-57
2021/03/14 08:01:46;;;;;;;24.90;15.35;;;;;;;5.97;77.31;100691.64;1663511;86;21245;-57
2021/03/14 08:04:55;;;;;;;27.93;15.75;;;;;;;6.06;76.95;100688.08;1658288;86;21257;-57
2021/03/14 08:08:00;;;;;;;20.25;13.75;;;;;;;6.11;76.75;100685.80;1658983;85;21226;-57
2021/03/14 08:11:07;;;;;;;24.02;14.05;;;;;;;6.14;76.46;100692.31;1645867;87;21249;-56
2021/03/14 08:14:13;;;;;;;24.10;14.90;;;;;;;6.16;76.27;100695.76;1645966;86;21303;-57
2021/03/14 08:17:43;;;;;;;21.33;14.07;;;;;;;6.23;76.28;100686.05;1646519;86;21224;-56
2021/03/14 08:20:55;;;;;;;20.27;14.03;;;;;;;6.28;75.91;100693.27;1646059;87;21768;-55
2021/03/14 08:24:04;;;;;;;20.25;12.95;;;;;;;6.36;76.06;100695.30;1646201;86;21257;-56
2021/03/14 08:27:17;;;;;;;22.95;14.87;;;;;;;6.46;75.63;100696.14;1646110;86;21252;-55
2021/03/14 08:30:50;;;;;;;23.80;14.40;;;;;;;6.51;75.47;100698.81;1646224;86;21307;-55
2021/03/14 08:33:55;;;;;;;17.75;12.45;;;;;;;6.61;75.23;100704.26;1646437;86;21800;-56
2021/03/14 08:37:04;;;;;;;21.42;13.60;;;;;;;6.67;74.94;100699.59;1646334;86;21244;-55
2021/03/14 08:40:14;;;;;;;22.50;13.83;;;;;;;6.63;74.67;100704.98;1646101;87;21232;-56
2021/03/14 08:43:21;;;;;;;22.60;14.90;;;;;;;6.70;74.68;100700.17;1646136;86;21917;-55
2021/03/14 08:46:26;;;;;;;20.15;13.35;;;;;;;6.72;74.46;100701.39;1646165;87;21225;-55
2021/03/14 08:49:33;;;;;;;20.00;14.38;;;;;;;6.75;74.44;100699.74;1646265;86;21244;-55
2021/03/14 08:52:40;;;;;;;25.37;14.98;;;;;;;6.71;74.26;100701.88;1646354;86;21719;-54
2021/03/14 08:55:59;;;;;;;27.17;15.83;;;;;;;6.63;74.24;100700.90;1589235;87;21765;-54
2021/03/14 08:59:20;;;;;;;24.57;15.32;;;;;;;6.47;74.50;100696.00;1646027;86;21317;-55
2021/03/14 09:02:38;;;;;;;23.40;14.23;;;;;;;6.51;74.92;100691.14;1646117;86;21300;-55
2021/03/14 09:06:19;;;;;;;24.15;14.20;;;;;;;6.52;75.04;100693.72;1646031;87;21248;-54
2021/03/14 09:09:28;;;;;;;27.35;15.35;;;;;;;6.51;75.11;100687.94;1647807;84;21256;-54
2021/03/14 09:12:39;;;;;;;26.23;15.48;;;;;;;6.49;75.19;100693.14;1659415;85;21836;-55
2021/03/14 09:15:56;;;;;;;23.18;14.47;;;;;;;6.51;75.22;100693.38;1659003;86;21249;-55
2021/03/14 09:19:04;;;;;;;24.75;14.35;;;;;;;6.53;75.30;100689.15;1658499;85;21296;-54
2021/03/14 09:22:13;;;;;;;24.63;12.73;;;;;;;6.71;75.60;100678.76;1658808;85;21368;-54
2021/03/14 09:25:23;;;;;;;21.30;11.75;;;;;;;6.88;75.02;100676.66;1658983;86;21221;-54
2021/03/14 09:28:34;;;;;;;21.40;12.85;;;;;;;6.94;74.74;100684.27;1658800;85;21388;-54
2021/03/14 09:31:41;;;;;;;17.77;11.93;;;;;;;7.01;74.46;100685.38;1659107;86;21873;-54
2021/03/14 09:34:50;;;;;;;20.48;12.60;;;;;;;7.03;74.17;100687.95;1644475;86;21218;-55
2021/03/14 09:38:00;;;;;;;23.67;13.45;;;;;;;6.98;74.00;100688.41;1659300;85;21282;-54
2021/03/14 09:41:06;;;;;;;21.97;13.18;;;;;;;6.92;73.86;100689.48;1659791;86;21253;-55
2021/03/14 09:44:16;;;;;;;19.67;12.20;;;;;;;6.87;73.85;100688.56;1663626;85;21710;-54
2021/03/14 09:47:28;;;;;;;22.02;13.72;;;;;;;6.85;73.91;100681.03;1658547;85;21285;-54
2021/03/14 09:50:39;;;;;;;27.27;13.65;;;;;;;6.89;73.88;100679.76;1658992;86;21632;-54
2021/03/14 09:53:48;;;;;;;24.98;13.60;;;;;;;6.94;73.61;100672.52;1663650;85;21407;-54
2021/03/14 09:57:03;;;;;;;28.15;13.62;;;;;;;6.94;73.45;100676.10;1658773;86;21238;-53
2021/03/14 10:00:32;;;;;;;22.80;12.50;;;;;;;6.93;73.37;100675.73;1659369;86;21350;-54
2021/03/14 10:03:38;;;;;;;20.62;11.78;;;;;;;7.08;73.56;100677.00;1690884;84;21261;-54
2021/03/14 10:06:47;;;;;;;25.25;14.05;;;;;;;7.25;73.11;100673.52;1685658;85;21886;-54
2021/03/14 10:09:53;;;;;;;22.77;12.88;;;;;;;7.20;72.53;100670.38;1689257;85;21866;-54
2021/03/14 10:13:11;;;;;;;22.00;13.25;;;;;;;7.20;72.52;100666.78;1667425;85;21804;-53
2021/03/14 10:16:24;;;;;;;22.37;13.13;;;;;;;7.22;72.43;100665.64;1698814;84;21329;-54
2021/03/14 10:19:31;;;;;;;17.70;11.45;;;;;;;7.21;72.18;100659.86;1659386;86;21257;-53
2021/03/14 10:22:40;;;;;;;17.23;11.73;;;;;;;7.19;72.20;100653.69;1704809;82;21197;-54
2021/03/14 10:25:54;;;;;;;20.20;12.30;;;;;;;7.23;72.20;100646.93;1704865;84;21208;-54
2021/03/14 10:29:08;;;;;;;16.80;11.03;;;;;;;7.34;72.17;100652.20;1704517;84;21217;-54
2021/03/14 10:32:29;;;;;;;23.05;12.10;;;;;;;7.46;72.03;100638.77;1705640;82;21248;-54
2021/03/14 10:35:37;;;;;;;17.80;11.38;;;;;;;7.47;71.67;100632.80;1705839;84;21744;-56
2021/03/14 10:38:59;;;;;;;19.98;11.18;;;;;;;7.42;71.17;100639.22;1667436;84;21286;-54
2021/03/14 10:42:09;;;;;;;16.60;10.85;;;;;;;7.29;71.08;100635.97;1664527;86;21293;-55
2021/03/14 10:45:22;;;;;;;22.20;11.80;;;;;;;7.31;71.24;100630.71;1700102;84;21352;-53
2021/03/14 10:48:35;;;;;;;18.17;10.82;;;;;;;7.29;70.94;100621.83;1639798;86;21260;-55
2021/03/14 10:51:43;;;;;;;20.25;10.85;;;;;;;7.28;70.82;100620.13;1700014;84;21375;-53
2021/03/14 10:54:49;;;;;;;19.62;11.90;;;;;;;7.28;70.82;100618.76;1668648;85;21224;-53
2021/03/14 10:57:58;;;;;;;18.37;11.40;;;;;;;7.41;70.78;100615.20;1668693;84;21223;-54
2021/03/14 11:01:05;;;;;;;18.62;10.95;;;;;;;7.47;70.57;100614.59;1668731;86;21259;-54
2021/03/14 11:04:14;;;;;;;17.60;9.65;;;;;;;7.54;70.36;100604.83;1648820;86;21247;-53
2021/03/14 11:07:39;;;;;;;16.82;10.75;;;;;;;7.56;70.29;100595.97;1700373;83;21459;-52
2021/03/14 11:10:46;;;;;;;17.48;9.98;;;;;;;7.48;69.78;100597.23;1669052;85;21223;-53
2021/03/14 11:13:57;;;;;;;19.30;9.58;;;;;;;7.42;69.92;100600.56;1709781;82;21212;-53
2021/03/14 11:17:22;;;;;;;16.15;9.55;;;;;;;7.55;69.93;100601.08;1645754;87;21770;-53
2021/03/14 11:20:34;;;;;;;16.02;9.13;;;;;;;7.67;69.65;100604.47;1705196;84;21248;-52
2021/03/14 11:23:40;;;;;;;13.20;8.50;;;;;;;7.65;69.20;100594.22;1675781;84;21254;-53
2021/03/14 11:26:47;;;;;;;13.35;8.88;;;;;;;7.58;69.39;100595.82;1649041;87;21288;-54
2021/03/14 11:29:55;;;;;;;14.23;9.30;;;;;;;7.52;69.21;100594.58;1649243;87;21233;-53
2021/03/14 11:33:04;;;;;;;16.12;10.35;;;;;;;7.48;69.25;100592.31;1649348;87;21252;-53
2021/03/14 11:36:21;;;;;;;13.55;8.53;;;;;;;7.48;69.19;100590.42;1705166;84;21375;-52
2021/03/14 11:39:29;;;;;;;15.00;8.83;;;;;;;7.44;68.98;100586.80;1677793;84;21225;-52
2021/03/14 11:42:36;;;;;;;12.65;8.33;;;;;;;7.36;68.94;100583.97;1677569;85;21232;-53
2021/03/14 11:45:44;;;;;;;11.38;7.90;;;;;;;7.28;68.88;100577.05;1677623;85;21731;-53
2021/03/14 11:48:51;;;;;;;15.88;8.85;;;;;;;7.20;69.21;100580.53;1677273;85;21961;-53
2021/03/14 11:51:57;;;;;;;25.30;11.05;;;;;;;7.23;69.51;100574.78;1701873;84;21764;-53
2021/03/14 11:55:04;;;;;;;17.05;9.50;;;;;;;7.24;69.63;100571.07;1677639;85;21413;-53
2021/03/14 11:58:09;;;;;;;19.85;10.15;;;;;;;7.34;69.76;100572.39;1705135;83;21236;-54
2021/03/14 12:01:13;;;;;;;18.32;10.13;;;;;;;7.32;69.62;100575.27;1677935;85;21779;-53
2021/03/14 12:04:21;;;;;;;14.00;8.83;;;;;;;7.36;69.79;100575.30;1705137;83;21236;-54
2021/03/14 12:07:29;;;;;;;16.02;8.58;;;;;;;7.36;69.53;100568.98;1705142;82;21235;-52
2021/03/14 12:10:35;;;;;;;14.98;8.53;;;;;;;7.27;69.71;100576.22;1678579;85;21376;-53
2021/03/14 12:13:41;;;;;;;10.65;7.87;;;;;;;7.27;69.90;100573.98;1628513;85;21406;-53
2021/03/14 12:17:04;;;;;;;17.02;8.08;;;;;;;7.30;69.74;100579.99;1703916;83;21268;-53
2021/03/14 12:20:24;;;;;;;17.05;8.53;;;;;;;7.22;69.32;100574.94;1647598;85;21228;-53
2021/03/14 12:23:37;;;;;;;12.30;7.35;;;;;;;7.19;69.60;100576.59;1649023;87;21762;-53
2021/03/14 12:26:45;;;;;;;12.85;7.42;;;;;;;7.22;69.66;100569.48;1648694;87;21741;-53
2021/03/14 12:29:52;;;;;;;12.95;7.40;;;;;;;7.25;69.89;100565.97;1676014;85;21237;-54
2021/03/14 12:32:58;;;;;;;13.62;7.05;;;;;;;7.39;69.81;100564.11;1677917;84;21830;-54
2021/03/14 12:36:09;;;;;;;10.65;6.92;;;;;;;7.44;69.62;100567.73;1678060;85;21405;-53
2021/03/14 12:39:17;;;;;;;12.10;6.67;;;;;;;7.55;69.24;100568.89;1648584;87;21648;-54
2021/03/14 12:42:22;;;;;;;11.68;7.00;;;;;;;7.65;69.00;100561.52;1705042;82;21450;-55
2021/03/14 12:45:30;;;;;;;15.53;7.05;;;;;;;7.72;68.86;100558.55;1678430;85;21301;-54
2021/03/14 12:48:37;;;;;;;10.53;6.85;;;;;;;7.83;68.72;100550.16;1678212;84;21383;-53
2021/03/14 12:51:44;;;;;;;17.45;8.35;;;;;;;7.94;68.31;100549.93;1649434;87;21475;-53
2021/03/14 12:54:50;;;;;;;14.23;7.85;;;;;;;7.96;67.94;100549.77;1649382;87;21754;-53
2021/03/14 12:58:01;;;;;;;12.53;6.97;;;;;;;8.00;67.93;100557.48;1649534;87;21395;-54
2021/03/14 13:01:10;;;;;;;13.25;7.12;;;;;;;8.09;67.66;100554.31;1705473;83;21884;-53
2021/03/14 13:04:16;;;;;;;18.05;8.33;;;;;;;8.21;67.35;100562.63;1678189;84;21314;-54
2021/03/14 13:07:23;;;;;;;17.50;8.63;;;;;;;8.23;66.74;100555.19;1649542;85;21249;-54
2021/03/14 13:10:32;;;;;;;10.43;7.22;;;;;;;8.16;66.46;100544.01;1705547;84;21306;-55
2021/03/14 13:13:38;;;;;;;10.03;7.05;;;;;;;8.06;66.44;100547.80;1678060;84;21253;-54
2021/03/14 13:16:52;;;;;;;15.60;8.38;;;;;;;7.95;66.67;100542.59;1707544;84;21471;-54
2021/03/14 13:19:56;;;;;;;12.50;7.00;;;;;;;7.84;66.78;100530.55;1707675;84;21245;-53
2021/03/14 13:23:04;;;;;;;10.32;6.12;;;;;;;7.71;66.89;100535.55;1707614;84;21801;-54
2021/03/14 13:26:11;;;;;;;13.72;6.47;;;;;;;7.58;67.15;100534.53;1707646;84;21205;-53
2021/03/14 13:29:17;;;;;;;9.85;6.20;;;;;;;7.50;67.38;100527.63;1707396;84;21237;-54
2021/03/14 13:32:22;;;;;;;12.37;6.72;;;;;;;7.47;67.56;100537.47;1669189;84;21267;-53
2021/03/14 13:35:28;;;;;;;14.93;7.67;;;;;;;7.46;67.71;100533.04;1668306;86;21306;-53
2021/03/14 13:38:33;;;;;;;11.10;7.55;;;;;;;7.40;67.97;100533.13;1697656;83;21225;-53
2021/03/14 13:41:38;;;;;;;10.75;6.83;;;;;;;7.44;68.33;100535.05;1658741;86;21215;-53
2021/03/14 13:44:44;;;;;;;14.00;6.83;;;;;;;7.44;68.31;100528.23;1704550;84;21210;-53
2021/03/14 13:47:51;;;;;;;12.65;8.20;;;;;;;7.38;68.24;100522.91;1704756;84;21280;-53
2021/03/14 13:51:03;;;;;;;12.10;6.67;;;;;;;7.33;68.41;100519.78;1704460;84;21261;-53
2021/03/14 13:54:13;;;;;;;9.98;6.85;;;;;;;7.34;68.47;100514.68;1677993;84;21777;-53
2021/03/14 13:57:18;;;;;;;9.58;6.72;;;;;;;7.35;68.52;100501.44;1677996;84;21777;-53
2021/03/14 14:00:26;;;;;;;13.55;7.42;;;;;;;7.34;68.57;100499.70;1678760;85;21275;-53
2021/03/14 14:03:34;;;;;;;17.75;7.90;;;;;;;7.33;68.71;100487.60;1640896;86;21290;-52
2021/03/14 14:06:39;;;;;;;12.88;8.95;;;;;;;7.30;68.80;100493.36;1633681;88;21270;-53
2021/03/14 14:09:52;;;;;;;13.85;9.28;;;;;;;7.32;68.94;100493.58;1678653;85;21786;-53
2021/03/14 14:12:54;;;;;;;20.12;10.10;;;;;;;7.34;68.97;100479.28;1678618;84;21236;-53
2021/03/14 14:16:00;;;;;;;23.10;11.65;;;;;;;7.34;69.00;100487.45;1673170;83;21767;-53
2021/03/14 14:19:06;;;;;;;27.70;12.03;;;;;;;7.35;69.08;100481.51;1657025;85;21234;-53
2021/03/14 14:22:11;;;;;;;26.93;14.10;;;;;;;7.33;69.04;100480.80;1662887;85;21368;-53
2021/03/14 14:25:17;;;;;;;30.50;15.88;;;;;;;7.28;69.04;100481.26;1658798;86;21363;-53
2021/03/14 14:28:24;;;;;;;32.95;17.32;;;;;;;7.23;69.10;100476.77;1658671;85;21226;-53